Weather at Cameron House Hotel Seaplane Base

Public forecast

Using degrees Celsius for public forecast. Weather courtesy of forecast.io.

Closest aviation weather report (METAR) to Cameron House Hotel Seaplane Base

Report is more than 6 hours old.

Closest report is Glasgow International Airport, 10.3 nm (19.1 km) SE.

2022/11/14 15:20 (retrieved 2 years ago)

EGPF 141520Z AUTO 10008KT 9999 BKN022 12/10 Q1002

Closest aviation forecast (TAF) to Cameron House Hotel Seaplane Base

Forecast is more than 12 hours old.

Closest forecast is Glasgow International Airport, 10.3 nm (19.1 km) SE.

2023/02/22 18:00 (retrieved 1 year ago)

TAF EGPF 221653Z 2218/2318 34010KT CAVOK BECMG 2218/2221 28004KT PROB40 2303/2310 7000 BECMG 2310/2313 27014KT BKN014 PROB30 TEMPO 2315/2318 7000 -RA